createdAt,value
2022-11-17T00:03:18.795Z,20.95
2022-11-17T00:05:46.203Z,22.02
2022-11-17T00:08:13.675Z,22.23
2022-11-17T00:10:41.071Z,23.98
2022-11-17T00:13:29.626Z,22.83
2022-11-17T00:15:57.026Z,22.10
2022-11-17T00:18:42.858Z,21.35
2022-11-17T00:21:23.502Z,20.92
2022-11-17T00:23:51.118Z,19.50
2022-11-17T00:26:20.585Z,21.52
2022-11-17T00:28:53.061Z,19.27
2022-11-17T00:31:39.640Z,20.85
2022-11-17T00:34:08.029Z,23.05
2022-11-17T00:36:38.526Z,23.40
2022-11-17T00:39:07.861Z,22.85
2022-11-17T00:41:35.681Z,23.52
2022-11-17T00:44:03.783Z,21.65
2022-11-17T00:46:31.780Z,22.50
2022-11-17T00:48:59.605Z,21.38
2022-11-17T00:51:27.136Z,22.88
2022-11-17T00:53:54.508Z,22.95
2022-11-17T00:56:21.985Z,22.48
2022-11-17T00:58:49.743Z,22.52
2022-11-17T01:01:17.790Z,23.25
2022-11-17T01:03:45.237Z,22.75
2022-11-17T01:06:18.475Z,21.83
2022-11-17T01:08:46.615Z,19.85
2022-11-17T01:11:19.306Z,20.13
2022-11-17T01:13:48.052Z,20.67
2022-11-17T01:16:17.828Z,20.75
2022-11-17T01:18:47.491Z,19.90
2022-11-17T01:21:20.202Z,18.50
2022-11-17T01:23:49.703Z,18.90
2022-11-17T01:26:19.833Z,18.60
2022-11-17T01:28:47.922Z,18.73
2022-11-17T01:31:18.868Z,18.30
2022-11-17T01:33:46.708Z,18.20
2022-11-17T01:36:17.489Z,17.02
2022-11-17T01:38:45.467Z,19.00
2022-11-17T01:41:22.171Z,19.23
2022-11-17T01:43:58.723Z,19.45
2022-11-17T01:46:29.269Z,20.92
2022-11-17T01:49:07.187Z,19.83
2022-11-17T01:51:37.455Z,20.35
2022-11-17T01:54:04.957Z,23.02
2022-11-17T01:56:38.904Z,21.63
2022-11-17T01:59:14.787Z,21.85
2022-11-17T02:01:55.796Z,20.83
2022-11-17T02:04:30.770Z,21.70
2022-11-17T02:07:23.788Z,21.35
2022-11-17T02:09:52.944Z,24.33
2022-11-17T02:12:24.197Z,24.27
2022-11-17T02:14:52.951Z,23.52
2022-11-17T02:17:23.253Z,22.88
2022-11-17T02:20:11.101Z,24.85
2022-11-17T02:23:10.362Z,25.95
2022-11-17T02:26:12.118Z,22.98
2022-11-17T02:29:02.307Z,23.83
2022-11-17T02:31:59.674Z,24.02
2022-11-17T02:34:29.763Z,21.65
2022-11-17T02:37:03.892Z,20.83
2022-11-17T02:39:42.235Z,20.77
2022-11-17T02:43:04.827Z,20.20
2022-11-17T02:45:48.333Z,19.08
2022-11-17T02:48:32.986Z,18.42
2022-11-17T02:51:02.530Z,17.85
2022-11-17T02:53:30.906Z,17.02
2022-11-17T02:56:01.134Z,17.45
2022-11-17T02:58:28.628Z,17.20
2022-11-17T03:01:13.120Z,16.23
2022-11-17T03:04:03.667Z,16.77
2022-11-17T03:06:45.402Z,15.98
2022-11-17T03:09:21.127Z,16.08
2022-11-17T03:11:55.058Z,17.38
2022-11-17T03:14:44.335Z,17.75
2022-11-17T03:17:18.506Z,16.65
2022-11-17T03:19:56.077Z,18.35
2022-11-17T03:22:33.500Z,16.65
2022-11-17T03:25:06.851Z,16.23
2022-11-17T03:27:38.386Z,15.88
2022-11-17T03:30:09.166Z,15.45
2022-11-17T03:32:43.329Z,17.35
2022-11-17T03:35:18.229Z,17.48
2022-11-17T03:37:51.746Z,16.55
2022-11-17T03:40:23.196Z,16.23
2022-11-17T03:42:54.823Z,15.80
2022-11-17T03:45:29.016Z,14.98
2022-11-17T03:48:17.223Z,15.45
2022-11-17T03:50:52.531Z,15.48
2022-11-17T03:53:20.165Z,14.38
2022-11-17T03:55:57.801Z,15.65
2022-11-17T03:58:30.071Z,15.77
2022-11-17T04:01:00.362Z,15.77
2022-11-17T04:03:34.111Z,15.95
2022-11-17T04:06:01.945Z,16.02
2022-11-17T04:08:30.899Z,15.77
2022-11-17T04:11:17.180Z,16.80
2022-11-17T04:14:03.037Z,15.98
2022-11-17T04:16:30.509Z,15.25
2022-11-17T04:18:59.231Z,16.10
2022-11-17T04:21:27.068Z,15.05
2022-11-17T04:23:54.745Z,15.20
2022-11-17T04:26:40.587Z,15.30
2022-11-17T04:29:08.142Z,14.93
2022-11-17T04:31:35.551Z,16.48
2022-11-17T04:34:05.007Z,16.67
2022-11-17T04:36:35.158Z,16.55
2022-11-17T04:39:02.733Z,18.25
2022-11-17T04:41:49.413Z,17.25
2022-11-17T04:44:18.042Z,18.10
2022-11-17T04:46:46.246Z,18.17
2022-11-17T04:49:15.401Z,18.13
2022-11-17T04:51:43.109Z,18.00
2022-11-17T04:54:12.207Z,26.98
2022-11-17T04:56:40.035Z,26.52
2022-11-17T04:59:07.873Z,24.85
2022-11-17T05:01:35.716Z,23.75
2022-11-17T05:04:10.990Z,22.40
2022-11-17T05:06:43.790Z,21.38
2022-11-17T05:09:14.487Z,20.80
2022-11-17T05:12:01.278Z,20.30
2022-11-17T05:14:29.568Z,19.15
2022-11-17T05:17:10.990Z,20.67
2022-11-17T05:19:46.907Z,19.85
2022-11-17T05:22:38.936Z,18.13
2022-11-17T05:25:06.999Z,18.67
2022-11-17T05:27:34.398Z,20.02
2022-11-17T05:30:04.004Z,19.33
2022-11-17T05:32:31.379Z,18.77
2022-11-17T05:34:58.717Z,20.80
2022-11-17T05:37:26.137Z,19.95
2022-11-17T05:39:53.461Z,18.80
2022-11-17T05:42:20.929Z,17.58
2022-11-17T05:44:48.788Z,17.42
2022-11-17T05:47:16.239Z,16.85
2022-11-17T05:49:43.787Z,16.27
2022-11-17T05:52:11.137Z,17.13
2022-11-17T05:54:38.491Z,18.00
2022-11-17T05:57:15.823Z,18.52
2022-11-17T05:59:48.593Z,17.73
2022-11-17T06:02:32.056Z,18.83
2022-11-17T06:04:59.457Z,19.83
2022-11-17T06:07:26.964Z,18.52
2022-11-17T06:09:54.940Z,17.15
2022-11-17T06:12:22.254Z,16.80
2022-11-17T06:14:49.675Z,17.05
2022-11-17T06:17:24.730Z,16.55
2022-11-17T06:20:05.009Z,14.55
2022-11-17T06:22:33.428Z,14.68
2022-11-17T06:25:03.274Z,15.80
2022-11-17T06:27:32.474Z,14.25
2022-11-17T06:30:03.634Z,15.93
2022-11-17T06:32:32.852Z,16.40
2022-11-17T06:35:01.176Z,18.05
2022-11-17T06:37:28.560Z,16.90
2022-11-17T06:39:56.005Z,17.83
2022-11-17T06:42:43.368Z,17.40
2022-11-17T06:45:11.775Z,16.60
2022-11-17T06:47:39.310Z,17.50
2022-11-17T06:50:07.968Z,17.67
2022-11-17T06:52:35.366Z,18.27
2022-11-17T06:55:02.854Z,18.02
2022-11-17T06:57:30.454Z,18.20
2022-11-17T06:59:57.897Z,19.83
2022-11-17T07:02:25.289Z,18.38
2022-11-17T07:04:52.685Z,19.67
2022-11-17T07:07:20.149Z,19.38
2022-11-17T07:09:47.609Z,18.88
2022-11-17T07:12:16.134Z,18.30
2022-11-17T07:14:43.535Z,18.30
2022-11-17T07:17:11.048Z,18.67
2022-11-17T07:19:38.799Z,17.70
2022-11-17T07:22:06.203Z,17.80
2022-11-17T07:24:33.556Z,18.80
2022-11-17T07:27:00.961Z,16.38
2022-11-17T07:29:30.523Z,16.77
2022-11-17T07:31:57.993Z,16.83
2022-11-17T07:34:25.365Z,17.25
2022-11-17T07:36:52.760Z,17.50
2022-11-17T07:39:21.965Z,16.70
2022-11-17T07:41:49.561Z,15.80
2022-11-17T07:44:16.950Z,14.98
2022-11-17T07:46:44.369Z,15.80
2022-11-17T07:49:11.901Z,16.10
2022-11-17T07:51:39.342Z,15.93
2022-11-17T07:54:06.801Z,16.98
2022-11-17T07:56:34.533Z,17.33
2022-11-17T07:59:02.009Z,17.92
2022-11-17T08:01:29.774Z,20.95
2022-11-17T08:03:58.522Z,20.20
2022-11-17T08:06:26.012Z,22.00
2022-11-17T08:08:54.435Z,25.88
2022-11-17T08:11:21.889Z,24.27
2022-11-17T08:13:50.792Z,23.23
2022-11-17T08:16:18.378Z,23.70
2022-11-17T08:18:51.731Z,21.40
2022-11-17T08:21:19.670Z,21.50
2022-11-17T08:23:51.425Z,20.30
2022-11-17T08:26:20.827Z,18.17
2022-11-17T08:28:52.176Z,19.48
2022-11-17T08:31:22.672Z,17.48
2022-11-17T08:33:50.076Z,18.58
2022-11-17T08:36:17.452Z,18.75
2022-11-17T08:38:44.928Z,18.77
2022-11-17T08:41:12.407Z,19.40
2022-11-17T08:43:39.796Z,19.80
2022-11-17T08:46:12.619Z,20.00
2022-11-17T08:48:40.282Z,21.90
2022-11-17T08:51:09.100Z,22.75
2022-11-17T08:53:36.559Z,24.73
2022-11-17T08:56:08.827Z,24.35
2022-11-17T09:01:09.490Z,23.13
2022-11-17T09:03:37.494Z,23.60
2022-11-17T09:06:06.100Z,23.70
2022-11-17T09:08:49.089Z,23.83
2022-11-17T09:11:17.049Z,23.73
2022-11-17T09:13:45.821Z,24.75
2022-11-17T09:16:14.054Z,26.40
2022-11-17T09:18:41.804Z,31.88
2022-11-17T09:21:15.639Z,31.58
2022-11-17T09:23:43.120Z,31.67
2022-11-17T09:26:13.185Z,29.25
2022-11-17T09:28:41.213Z,26.20
2022-11-17T09:31:20.321Z,25.70
2022-11-17T09:33:48.044Z,25.00
2022-11-17T09:36:16.359Z,23.67
2022-11-17T09:38:44.311Z,22.33
2022-11-17T09:41:28.648Z,22.10
2022-11-17T09:44:24.542Z,21.17
2022-11-17T09:47:06.245Z,18.83
2022-11-17T09:49:56.769Z,17.35
2022-11-17T09:52:54.311Z,16.95
2022-11-17T09:55:34.167Z,16.65
2022-11-17T09:58:16.715Z,16.73
2022-11-17T10:00:48.929Z,15.02
2022-11-17T10:03:43.652Z,16.45
2022-11-17T10:06:19.511Z,15.10
2022-11-17T10:09:04.855Z,15.60
2022-11-17T10:11:39.779Z,16.48
2022-11-17T10:14:16.172Z,16.10
2022-11-17T10:16:50.925Z,17.80
2022-11-17T10:19:23.243Z,18.08
2022-11-17T10:21:54.589Z,17.80
2022-11-17T10:24:42.126Z,18.80
2022-11-17T10:27:22.548Z,20.30
2022-11-17T10:30:03.092Z,20.95
2022-11-17T10:32:33.864Z,21.63
2022-11-17T10:35:16.357Z,24.60
2022-11-17T10:40:25.888Z,25.83
2022-11-17T10:43:17.788Z,25.65
2022-11-17T10:45:51.508Z,25.20
2022-11-17T10:48:36.543Z,24.02
2022-11-17T10:51:22.617Z,24.98
2022-11-17T10:54:14.943Z,26.67
2022-11-17T10:56:47.859Z,27.13
2022-11-17T10:59:31.740Z,26.00
2022-11-17T11:02:30.193Z,23.23
2022-11-17T11:05:23.863Z,21.48
2022-11-17T11:07:51.247Z,19.90
2022-11-17T11:10:34.907Z,20.52
2022-11-17T11:13:16.503Z,19.15
2022-11-17T11:15:46.663Z,19.07
2022-11-17T11:18:16.973Z,17.55
2022-11-17T11:21:00.398Z,18.65
2022-11-17T11:23:27.778Z,19.00
2022-11-17T11:26:18.100Z,18.80
2022-11-17T11:29:00.694Z,19.48
2022-11-17T11:32:03.042Z,19.65
2022-11-17T11:34:33.400Z,19.13
2022-11-17T11:37:11.386Z,19.40
2022-11-17T11:40:02.671Z,19.50
2022-11-17T11:43:05.207Z,19.05
2022-11-17T11:46:05.112Z,19.38
2022-11-17T11:48:34.821Z,19.60
2022-11-17T11:51:16.508Z,20.60
2022-11-17T11:53:55.933Z,19.93
2022-11-17T11:56:33.040Z,19.02
2022-11-17T11:59:48.292Z,20.58
2022-11-17T12:02:39.318Z,22.05
2022-11-17T12:05:18.432Z,22.83
2022-11-17T12:07:56.185Z,23.95
2022-11-17T12:10:33.023Z,25.15
2022-11-17T12:13:01.899Z,24.15
2022-11-17T12:15:29.350Z,27.40
2022-11-17T12:18:06.152Z,28.17
2022-11-17T12:20:40.868Z,26.38
2022-11-17T12:23:37.137Z,27.30
2022-11-17T12:26:04.948Z,26.40
2022-11-17T12:28:38.225Z,26.13
2022-11-17T12:31:26.024Z,25.38
2022-11-17T12:33:53.385Z,25.60
2022-11-17T12:36:29.675Z,24.90
2022-11-17T12:39:07.105Z,23.42
2022-11-17T12:41:49.727Z,23.83
2022-11-17T12:44:38.512Z,22.90
2022-11-17T12:47:20.796Z,25.40
2022-11-17T12:50:00.173Z,21.45
2022-11-17T12:52:39.314Z,23.95
2022-11-17T12:55:28.412Z,22.95
2022-11-17T12:58:18.608Z,22.65
2022-11-17T13:01:13.421Z,23.42
2022-11-17T13:03:55.755Z,23.15
2022-11-17T13:06:38.489Z,20.73
2022-11-17T13:09:10.534Z,20.77
2022-11-17T13:11:38.682Z,22.30
2022-11-17T13:14:07.200Z,20.48
2022-11-17T13:16:37.298Z,22.13
2022-11-17T13:19:25.185Z,22.33
2022-11-17T13:22:24.808Z,22.52
2022-11-17T13:24:53.879Z,22.52
2022-11-17T13:27:24.099Z,23.40
2022-11-17T13:29:52.864Z,23.70
2022-11-17T13:32:23.823Z,23.98
2022-11-17T13:34:56.838Z,26.58
2022-11-17T13:37:27.063Z,24.90
2022-11-17T13:40:20.990Z,24.55
2022-11-17T13:42:49.508Z,24.48
2022-11-17T13:45:17.113Z,23.00
2022-11-17T13:47:47.150Z,23.58
2022-11-17T13:50:41.100Z,23.40
2022-11-17T13:53:11.266Z,25.00
2022-11-17T13:55:45.495Z,24.98
2022-11-17T13:58:41.116Z,25.00
2022-11-17T14:01:13.706Z,25.13
2022-11-17T14:03:43.090Z,25.75
2022-11-17T14:06:12.562Z,23.15
2022-11-17T14:08:42.292Z,25.17
2022-11-17T14:11:12.761Z,26.52
2022-11-17T14:14:12.063Z,31.05
2022-11-17T14:16:41.398Z,29.48
2022-11-17T14:19:14.656Z,30.65
2022-11-17T14:22:03.244Z,31.92
2022-11-17T14:24:32.709Z,33.10
2022-11-17T14:27:00.616Z,30.30
2022-11-17T14:29:29.557Z,30.88
2022-11-17T14:31:57.452Z,28.38
2022-11-17T14:34:24.868Z,28.10
2022-11-17T14:36:54.934Z,28.58
2022-11-17T14:39:22.839Z,28.80
2022-11-17T14:41:51.474Z,27.10
2022-11-17T14:44:18.988Z,28.70
2022-11-17T14:46:47.543Z,30.35
2022-11-17T14:49:15.158Z,29.27
2022-11-17T14:51:42.825Z,31.13
2022-11-17T14:54:10.199Z,30.30
2022-11-17T14:56:37.554Z,28.10
2022-11-17T14:59:04.919Z,27.20
2022-11-17T15:01:34.727Z,29.10
2022-11-17T15:04:20.683Z,31.27
2022-11-17T15:06:50.617Z,28.30
2022-11-17T15:09:20.562Z,30.58
2022-11-17T15:11:48.384Z,29.42
2022-11-17T15:14:16.089Z,28.17
2022-11-17T15:16:43.730Z,29.63
2022-11-17T15:19:12.207Z,26.33
2022-11-17T15:21:39.817Z,28.92
2022-11-17T15:24:07.242Z,28.90
2022-11-17T15:26:35.742Z,27.63
2022-11-17T15:29:03.169Z,27.17
2022-11-17T15:31:30.628Z,28.17
2022-11-17T15:33:58.079Z,28.63
2022-11-17T15:36:26.065Z,31.08
2022-11-17T15:38:53.498Z,35.53
2022-11-17T15:41:21.366Z,29.70
2022-11-17T15:43:48.768Z,28.00
2022-11-17T15:46:18.488Z,29.83
2022-11-17T15:48:48.945Z,30.25
2022-11-17T15:51:19.193Z,29.27
2022-11-17T15:53:47.981Z,29.98
2022-11-17T15:56:17.373Z,29.90
2022-11-17T15:58:46.063Z,30.35
2022-11-17T16:01:17.831Z,30.63
2022-11-17T16:03:45.762Z,32.08
2022-11-17T16:06:13.629Z,33.92
2022-11-17T16:08:42.400Z,35.72
2022-11-17T16:11:11.129Z,35.17
2022-11-17T16:13:38.837Z,33.33
2022-11-17T16:16:07.457Z,34.92
2022-11-17T16:18:35.589Z,35.22
2022-11-17T16:21:05.274Z,35.05
2022-11-17T16:23:44.736Z,35.35
2022-11-17T16:26:13.753Z,36.55
2022-11-17T16:28:42.085Z,37.40
2022-11-17T16:31:29.086Z,39.35
2022-11-17T16:33:59.174Z,39.50
2022-11-17T16:36:34.314Z,40.25
2022-11-17T16:39:05.622Z,38.55
2022-11-17T16:41:35.228Z,38.17
2022-11-17T16:44:06.310Z,38.78
2022-11-17T16:46:33.892Z,37.83
2022-11-17T16:49:03.776Z,38.65
2022-11-17T16:51:31.523Z,36.60
2022-11-17T16:54:04.904Z,35.35
2022-11-17T16:56:33.011Z,35.47
2022-11-17T16:59:00.651Z,34.88
2022-11-17T17:01:34.685Z,33.95
2022-11-17T17:04:04.828Z,38.35
2022-11-17T17:06:33.102Z,35.88
2022-11-17T17:09:05.751Z,35.35
2022-11-17T17:11:34.421Z,34.92
2022-11-17T17:14:04.644Z,34.35
2022-11-17T17:16:35.979Z,33.63
2022-11-17T17:19:05.768Z,33.78
2022-11-17T17:21:34.377Z,34.72
2022-11-17T17:24:02.406Z,35.47
2022-11-17T17:26:32.012Z,34.63
2022-11-17T17:29:01.206Z,34.13
2022-11-17T17:31:36.641Z,36.08
2022-11-17T17:34:06.330Z,37.40
2022-11-17T17:36:35.085Z,35.08
2022-11-17T17:39:03.025Z,36.22
2022-11-17T17:41:33.620Z,35.88
2022-11-17T17:44:03.296Z,33.28
2022-11-17T17:46:33.735Z,34.17
2022-11-17T17:49:01.254Z,33.20
2022-11-17T17:51:29.572Z,34.80
2022-11-17T17:54:00.770Z,32.38
2022-11-17T17:56:28.708Z,35.67
2022-11-17T17:58:57.185Z,32.78
2022-11-17T18:01:29.767Z,32.85
2022-11-17T18:04:04.297Z,31.33
2022-11-17T18:06:37.007Z,31.45
2022-11-17T18:09:05.578Z,33.33
2022-11-17T18:11:33.229Z,30.65
2022-11-17T18:14:00.684Z,32.85
2022-11-17T18:16:32.790Z,31.90
2022-11-17T18:19:02.991Z,30.85
2022-11-17T18:21:30.708Z,31.77
2022-11-17T18:24:00.693Z,34.65
2022-11-17T18:26:31.420Z,33.75
2022-11-17T18:29:05.043Z,32.88
2022-11-17T18:31:34.896Z,33.22
2022-11-17T18:34:07.120Z,33.67
2022-11-17T18:36:35.457Z,33.45
2022-11-17T18:39:03.639Z,32.20
2022-11-17T18:41:33.391Z,34.10
2022-11-17T18:44:01.696Z,32.83
2022-11-17T18:46:31.273Z,34.20
2022-11-17T18:48:59.297Z,34.83
2022-11-17T18:51:29.605Z,33.88
2022-11-17T18:53:59.281Z,34.13
2022-11-17T18:56:35.547Z,34.90
2022-11-17T18:59:06.343Z,36.33
2022-11-17T19:01:33.832Z,34.08
2022-11-17T19:04:01.358Z,35.67
2022-11-17T19:06:29.597Z,35.70
2022-11-17T19:09:00.204Z,35.63
2022-11-17T19:11:30.791Z,35.38
2022-11-17T19:14:02.152Z,36.20
2022-11-17T19:16:31.831Z,36.87
2022-11-17T19:18:59.713Z,35.50
2022-11-17T19:21:29.368Z,36.30
2022-11-17T19:24:02.033Z,33.47
2022-11-17T19:26:31.992Z,34.05
2022-11-17T19:29:01.551Z,34.10
2022-11-17T19:31:29.145Z,34.83
2022-11-17T19:33:57.912Z,34.60
2022-11-17T19:36:30.839Z,35.25
2022-11-17T19:38:59.703Z,35.13
2022-11-17T19:41:34.716Z,35.85
2022-11-17T19:44:04.754Z,35.45
2022-11-17T19:46:33.493Z,34.42
2022-11-17T19:49:01.472Z,36.90
2022-11-17T19:51:31.382Z,34.58
2022-11-17T19:54:02.914Z,35.25
2022-11-17T19:56:30.431Z,33.92
2022-11-17T19:58:58.144Z,35.47
2022-11-17T20:01:30.104Z,35.13
2022-11-17T20:04:00.206Z,35.45
2022-11-17T20:06:30.432Z,33.53
2022-11-17T20:08:57.928Z,35.53
2022-11-17T20:11:28.188Z,35.13
2022-11-17T20:13:55.931Z,35.83
2022-11-17T20:16:26.478Z,35.22
2022-11-17T20:18:58.926Z,34.55
2022-11-17T20:21:27.754Z,33.58
2022-11-17T20:23:56.326Z,34.75
2022-11-17T20:26:26.095Z,35.28
2022-11-17T20:28:53.853Z,33.17
2022-11-17T20:31:26.052Z,33.10
2022-11-17T20:34:00.566Z,32.33
2022-11-17T20:36:31.439Z,33.25
2022-11-17T20:39:01.211Z,32.08
2022-11-17T20:41:28.874Z,32.00
2022-11-17T20:43:58.410Z,34.15
2022-11-17T20:46:26.448Z,33.58
2022-11-17T20:48:53.860Z,33.10
2022-11-17T20:51:23.445Z,32.15
2022-11-17T20:53:51.163Z,31.77
2022-11-17T20:56:18.796Z,32.95
2022-11-17T20:58:46.170Z,31.80
2022-11-17T21:01:18.961Z,32.10
2022-11-17T21:03:46.980Z,31.30
2022-11-17T21:06:14.878Z,30.60
2022-11-17T21:08:44.145Z,30.17
2022-11-17T21:11:42.064Z,32.00
2022-11-17T21:14:13.519Z,31.85
2022-11-17T21:16:45.481Z,31.23
2022-11-17T21:19:16.647Z,33.22
2022-11-17T21:21:44.983Z,33.08
2022-11-17T21:24:13.026Z,32.53
2022-11-17T21:26:40.395Z,35.38
2022-11-17T21:29:07.933Z,34.63
2022-11-17T21:31:35.449Z,33.63
2022-11-17T21:34:06.135Z,34.55
2022-11-17T21:36:35.557Z,36.80
2022-11-17T21:39:03.557Z,34.00
2022-11-17T21:41:35.389Z,34.25
2022-11-17T21:44:03.891Z,34.10
2022-11-17T21:46:33.313Z,34.13
2022-11-17T21:49:00.875Z,35.35
2022-11-17T21:51:33.586Z,32.25
2022-11-17T21:54:03.719Z,32.05
2022-11-17T21:56:32.077Z,34.88
2022-11-17T21:59:01.768Z,33.00
2022-11-17T22:01:30.102Z,36.03
2022-11-17T22:03:57.525Z,37.25
2022-11-17T22:06:25.783Z,36.00
2022-11-17T22:08:54.428Z,36.95
2022-11-17T22:11:36.666Z,38.40
2022-11-17T22:14:05.550Z,36.35
2022-11-17T22:16:34.698Z,38.70
2022-11-17T22:19:02.486Z,39.47
2022-11-17T22:21:30.127Z,37.88
2022-11-17T22:23:58.054Z,38.75
2022-11-17T22:26:25.587Z,38.17
2022-11-17T22:28:54.439Z,38.33
2022-11-17T22:31:22.756Z,37.70
2022-11-17T22:33:51.063Z,39.13
2022-11-17T22:36:19.242Z,39.30
2022-11-17T22:38:50.200Z,37.28
2022-11-17T22:41:19.612Z,38.20
2022-11-17T22:43:55.029Z,41.25
2022-11-17T22:46:24.987Z,39.33
2022-11-17T22:48:52.912Z,37.72
2022-11-17T22:51:39.144Z,37.90
2022-11-17T22:54:07.994Z,36.72
2022-11-17T22:56:35.898Z,37.28
2022-11-17T22:59:03.367Z,37.47
2022-11-17T23:01:30.832Z,37.33
2022-11-17T23:03:58.527Z,35.13
2022-11-17T23:06:28.944Z,36.80
2022-11-17T23:08:58.188Z,36.75
2022-11-17T23:11:41.592Z,34.97
2022-11-17T23:14:13.960Z,35.83
2022-11-17T23:16:42.330Z,34.42
2022-11-17T23:19:13.121Z,35.17
2022-11-17T23:21:40.712Z,33.88
2022-11-17T23:24:12.934Z,34.35
2022-11-17T23:26:41.932Z,35.20
2022-11-17T23:29:09.419Z,33.90
2022-11-17T23:31:36.834Z,35.03
2022-11-17T23:34:04.297Z,35.35
2022-11-17T23:36:31.707Z,34.67
2022-11-17T23:38:59.095Z,33.92
2022-11-17T23:41:26.556Z,33.97
2022-11-17T23:43:54.800Z,31.83
2022-11-17T23:46:24.877Z,32.70
2022-11-17T23:48:52.709Z,31.70
2022-11-17T23:51:25.228Z,31.52
2022-11-17T23:53:53.117Z,31.42
2022-11-17T23:56:20.722Z,31.52
2022-11-17T23:58:48.586Z,31.75
